Time;durP1;ratioP1;P1;durP2;ratioP2;P2;SDS_P1;SDS_P2;PMS_P1;PMS_P2;Temp;Humidity;BMP_temperature;BMP_pressure;BME280_temperature;BME280_humidity;BME280_pressure;Samples;Min_cycle;Max_cycle;Signal;HPM_P1;HPM_P2
2022/08/08 00:01:48;;;;;;;17.33;13.37;;;23.80;84.10;;;;;;5049334;28;20209;-82
2022/08/08 00:04:54;;;;;;;14.47;12.93;;;23.80;84.20;;;;;;5085033;28;20217;-81
2022/08/08 00:07:45;;;;;;;18.10;13.30;;;23.70;84.30;;;;;;5081817;28;20217;-81
2022/08/08 00:10:18;;;;;;;15.07;13.77;;;23.70;84.50;;;;;;5078543;28;20233;-82
2022/08/08 00:13:00;;;;;;;15.67;14.20;;;23.70;84.60;;;;;;5091600;28;20197;-81
2022/08/08 00:15:34;;;;;;;16.63;14.33;;;23.70;84.50;;;;;;5066747;28;21113;-81
2022/08/08 00:18:49;;;;;;;20.20;14.20;;;23.60;84.20;;;;;;5088597;28;20197;-81
2022/08/08 00:21:25;;;;;;;19.23;14.60;;;23.60;84.40;;;;;;5070998;28;20557;-81
2022/08/08 00:24:05;;;;;;;17.83;16.23;;;23.60;84.50;;;;;;5094547;28;20197;-81
2022/08/08 00:26:40;;;;;;;18.13;16.33;;;23.60;84.70;;;;;;5087374;28;20213;-81
2022/08/08 00:29:16;;;;;;;16.90;15.27;;;23.60;84.90;;;;;;5066695;28;20683;-81
2022/08/08 00:32:35;;;;;;;16.57;14.97;;;23.60;85.30;;;;;;5079124;28;20206;-81
2022/08/08 00:35:24;;;;;;;16.97;15.37;;;23.60;85.60;;;;;;5078691;28;20292;-81
2022/08/08 00:38:01;;;;;;;18.40;16.70;;;23.60;85.70;;;;;;5077539;28;20215;-81
2022/08/08 00:40:29;;;;;;;19.03;17.07;;;23.60;85.70;;;;;;5089701;28;20570;-81
2022/08/08 00:43:21;;;;;;;20.13;18.33;;;23.60;85.60;;;;;;5085482;27;20190;-81
2022/08/08 00:46:02;;;;;;;19.43;17.73;;;23.60;85.40;;;;;;5078384;28;20623;-81
2022/08/08 00:49:29;;;;;;;19.90;17.87;;;23.60;85.30;;;;;;5076320;28;20652;-82
2022/08/08 00:52:11;;;;;;;17.93;16.13;;;23.60;85.40;;;;;;5101051;28;20201;-81
2022/08/08 00:55:02;;;;;;;18.17;16.33;;;23.60;85.40;;;;;;5070406;28;20205;-82
2022/08/08 00:57:55;;;;;;;19.27;17.43;;;23.70;85.60;;;;;;5069402;28;20291;-81
2022/08/08 01:00:28;;;;;;;19.33;17.60;;;23.60;85.60;;;;;;5065065;28;20640;-81
2022/08/08 01:03:11;;;;;;;20.37;18.27;;;23.70;85.60;;;;;;5066874;28;20213;-81
2022/08/08 01:06:19;;;;;;;17.90;16.33;;;23.70;85.70;;;;;;5083198;28;20224;-81
2022/08/08 01:09:01;;;;;;;19.37;17.40;;;23.70;85.70;;;;;;5079507;28;20279;-81
2022/08/08 01:12:12;;;;;;;19.73;17.73;;;23.70;85.60;;;;;;5076866;28;20292;-82
2022/08/08 01:15:12;;;;;;;19.20;17.37;;;23.60;85.60;;;;;;5103764;28;20198;-82
2022/08/08 01:18:19;;;;;;;20.83;18.83;;;23.60;85.50;;;;;;5080975;28;20259;-82
2022/08/08 01:21:39;;;;;;;19.57;17.47;;;23.70;85.30;;;;;;5084266;28;20237;-81
2022/08/08 01:24:47;;;;;;;19.87;17.87;;;23.60;85.30;;;;;;5101868;28;20295;-81
2022/08/08 01:27:46;;;;;;;20.90;18.17;;;23.60;85.40;;;;;;5080836;28;20225;-81
2022/08/08 01:30:50;;;;;;;18.80;16.83;;;23.60;85.40;;;;;;5064686;28;20202;-81
2022/08/08 01:33:43;;;;;;;21.40;17.67;;;23.60;85.40;;;;;;5090028;28;20214;-82
2022/08/08 01:36:51;;;;;;;22.07;19.83;;;23.60;85.40;;;;;;5074415;28;20201;-81
2022/08/08 01:39:31;;;;;;;20.97;18.87;;;23.60;86.00;;;;;;5090350;28;20258;-81
2022/08/08 01:42:44;;;;;;;21.50;19.50;;;23.50;85.20;;;;;;5066601;28;20302;-81
2022/08/08 01:45:32;;;;;;;23.40;20.63;;;23.60;85.40;;;;;;5076074;28;20205;-82
2022/08/08 01:48:35;;;;;;;22.00;19.90;;;23.50;85.30;;;;;;5090631;28;20225;-81
2022/08/08 01:51:31;;;;;;;23.53;19.70;;;23.50;85.30;;;;;;5094962;28;20204;-81
2022/08/08 01:54:43;;;;;;;24.03;20.33;;;23.50;85.30;;;;;;5093520;28;20658;-81
2022/08/08 01:58:09;;;;;;;24.03;21.63;;;23.50;85.20;;;;;;5083650;28;20724;-81
2022/08/08 02:01:09;;;;;;;22.30;20.10;;;23.50;85.10;;;;;;5089758;28;20261;-81
2022/08/08 02:03:56;;;;;;;23.40;21.00;;;23.50;85.10;;;;;;5099438;28;20293;-80
2022/08/08 02:06:30;;;;;;;21.73;19.53;;;23.50;85.00;;;;;;5085626;28;20205;-81
2022/08/08 02:09:23;;;;;;;23.13;20.73;;;23.40;85.10;;;;;;5087828;28;20315;-81
2022/08/08 02:12:47;;;;;;;23.37;20.93;;;23.40;85.40;;;;;;5078217;28;20590;-80
2022/08/08 02:15:33;;;;;;;24.70;21.57;;;23.40;85.60;;;;;;5082322;28;20230;-80
2022/08/08 02:18:26;;;;;;;22.73;20.43;;;23.40;85.70;;;;;;5087706;28;20213;-81
2022/08/08 02:24:08;;;;;;;22.70;20.30;;;23.40;85.50;;;;;;5093926;28;20695;-81
2022/08/08 02:26:49;;;;;;;24.53;22.13;;;23.40;85.20;;;;;;5097027;28;20214;-81
2022/08/08 02:29:39;;;;;;;24.30;21.83;;;23.40;85.20;;;;;;5094352;28;20312;-81
2022/08/08 02:32:40;;;;;;;23.30;21.00;;;23.30;85.20;;;;;;5089221;28;20201;-81
2022/08/08 02:35:16;;;;;;;24.83;22.10;;;23.30;85.20;;;;;;5088264;28;20307;-81
2022/08/08 02:38:17;;;;;;;23.57;21.20;;;23.30;85.30;;;;;;5072328;28;20209;-82
2022/08/08 02:41:24;;;;;;;24.63;22.00;;;23.20;85.30;;;;;;5057616;28;20300;-82
2022/08/08 02:44:34;;;;;;;23.80;21.47;;;23.20;85.70;;;;;;5092132;28;20665;-82
2022/08/08 02:47:41;;;;;;;23.23;20.80;;;23.20;85.90;;;;;;5081727;28;20610;-81
2022/08/08 02:50:51;;;;;;;23.13;20.77;;;23.20;86.10;;;;;;5068234;28;20292;-81
2022/08/08 02:53:56;;;;;;;23.80;21.47;;;23.20;86.20;;;;;;5071726;28;20631;-81
2022/08/08 02:56:44;;;;;;;24.27;21.67;;;23.20;86.10;;;;;;5091670;28;20869;-81
2022/08/08 02:59:36;;;;;;;23.93;21.63;;;23.20;86.00;;;;;;5089976;28;20220;-80
2022/08/08 03:02:45;;;;;;;22.50;20.20;;;23.20;85.90;;;;;;5091903;28;20267;-80
2022/08/08 03:05:30;;;;;;;24.00;21.23;;;23.20;85.90;;;;;;5093810;28;20270;-81
2022/08/08 03:08:39;;;;;;;24.67;22.03;;;23.20;86.60;;;;;;5088373;28;20304;-82
2022/08/08 03:11:27;;;;;;;25.13;22.53;;;23.20;86.30;;;;;;5090661;28;20256;-80
2022/08/08 03:14:37;;;;;;;26.17;22.53;;;23.20;86.30;;;;;;5088086;28;20528;-81
2022/08/08 03:17:39;;;;;;;24.53;22.13;;;23.20;86.40;;;;;;5091010;28;20193;-80
2022/08/08 03:20:10;;;;;;;24.43;22.00;;;23.20;86.50;;;;;;5057911;28;20201;-81
2022/08/08 03:22:52;;;;;;;24.57;22.07;;;23.20;86.60;;;;;;5090236;28;20204;-81
2022/08/08 03:25:27;;;;;;;26.03;23.43;;;23.20;86.70;;;;;;5095471;28;20220;-80
2022/08/08 03:28:08;;;;;;;28.07;22.27;;;23.20;86.70;;;;;;5082800;28;20217;-80
2022/08/08 03:30:37;;;;;;;25.37;22.63;;;23.20;86.70;;;;;;5088870;28;20243;-81
2022/08/08 03:33:19;;;;;;;26.00;23.27;;;23.20;86.70;;;;;;5084179;28;20588;-82
2022/08/08 03:36:12;;;;;;;24.90;22.47;;;23.20;86.60;;;;;;5077129;28;20208;-80
2022/08/08 03:38:48;;;;;;;25.00;22.50;;;23.20;86.60;;;;;;5090110;28;20300;-83
2022/08/08 03:41:33;;;;;;;25.37;22.87;;;23.10;86.50;;;;;;5088971;28;20213;-81
2022/08/08 03:44:22;;;;;;;25.30;22.87;;;23.10;86.60;;;;;;5084722;28;20216;-81
2022/08/08 03:46:53;;;;;;;27.23;24.33;;;23.10;86.70;;;;;;5066409;28;20573;-81
2022/08/08 03:49:25;;;;;;;28.50;23.80;;;23.10;86.70;;;;;;5088092;28;20224;-81
2022/08/08 03:52:14;;;;;;;27.37;23.77;;;23.10;86.60;;;;;;5076708;28;20198;-81
2022/08/08 03:54:44;;;;;;;25.20;22.80;;;23.20;86.40;;;;;;5088682;28;20604;-81
2022/08/08 03:57:31;;;;;;;24.97;21.13;;;23.20;86.30;;;;;;5078052;28;20551;-81
2022/08/08 04:00:22;;;;;;;23.97;21.43;;;23.20;86.20;;;;;;5077322;28;20210;-81
2022/08/08 04:02:59;;;;;;;22.47;20.20;;;23.20;86.00;;;;;;5068364;28;20205;-80
2022/08/08 04:05:31;;;;;;;21.93;19.63;;;23.30;85.90;;;;;;5081020;28;20221;-81
2022/08/08 04:08:07;;;;;;;22.47;20.27;;;23.30;85.80;;;;;;5095190;28;20894;-80
2022/08/08 04:10:36;;;;;;;21.83;19.43;;;23.40;85.80;;;;;;5087165;28;20327;-81
2022/08/08 04:13:05;;;;;;;20.97;17.93;;;23.40;85.70;;;;;;5080360;28;20634;-81
2022/08/08 04:15:47;;;;;;;21.97;19.77;;;23.40;85.60;;;;;;5084549;28;20194;-81
2022/08/08 04:18:34;;;;;;;20.97;18.17;;;23.40;86.10;;;;;;5093062;28;20209;-81
2022/08/08 04:21:11;;;;;;;20.33;18.20;;;23.40;85.30;;;;;;5090375;28;20201;-80
2022/08/08 04:23:40;;;;;;;20.90;17.67;;;23.50;85.20;;;;;;5092692;28;20222;-80
2022/08/08 04:26:28;;;;;;;22.30;20.23;;;23.50;85.20;;;;;;5085611;28;20237;-81
2022/08/08 04:29:11;;;;;;;25.23;21.73;;;23.50;85.00;;;;;;5087397;28;20222;-81
2022/08/08 04:31:41;;;;;;;22.70;20.50;;;23.50;84.90;;;;;;5074992;28;20220;-80
2022/08/08 04:34:26;;;;;;;22.60;19.60;;;23.60;84.90;;;;;;5090456;28;20202;-81
2022/08/08 04:36:58;;;;;;;21.87;19.67;;;23.60;84.70;;;;;;5074370;28;20285;-80
2022/08/08 04:39:31;;;;;;;21.27;19.37;;;23.60;84.50;;;;;;5075788;28;20200;-81
2022/08/08 04:42:20;;;;;;;23.30;21.00;;;23.70;84.30;;;;;;5066671;28;20210;-80
2022/08/08 04:44:50;;;;;;;22.50;20.13;;;23.80;84.10;;;;;;5083883;28;20202;-81
2022/08/08 04:47:19;;;;;;;23.53;21.13;;;23.80;83.90;;;;;;5085152;28;20212;-80
2022/08/08 04:49:50;;;;;;;24.93;22.43;;;23.90;83.80;;;;;;5088829;28;20561;-81
2022/08/08 04:52:29;;;;;;;25.73;22.13;;;23.90;83.70;;;;;;5086309;28;20206;-81
2022/08/08 04:55:02;;;;;;;23.20;20.90;;;24.00;83.80;;;;;;5093124;28;20193;-81
2022/08/08 04:57:31;;;;;;;24.27;20.03;;;24.00;83.80;;;;;;5095316;28;20701;-81
2022/08/08 05:00:03;;;;;;;23.63;21.23;;;24.10;83.70;;;;;;5082152;28;20631;-80
2022/08/08 05:02:31;;;;;;;25.43;22.77;;;24.20;83.50;;;;;;5073078;28;20209;-82
2022/08/08 05:05:00;;;;;;;25.10;22.60;;;24.30;83.40;;;;;;5085883;28;20216;-80
2022/08/08 05:07:30;;;;;;;25.57;22.97;;;24.30;83.20;;;;;;5095430;28;20200;-81
2022/08/08 05:10:10;;;;;;;24.13;21.70;;;24.50;83.10;;;;;;5077838;28;20263;-80
2022/08/08 05:12:41;;;;;;;23.73;21.43;;;24.60;82.80;;;;;;5090444;28;20204;-81
2022/08/08 05:15:26;;;;;;;25.87;23.07;;;24.60;82.50;;;;;;5094152;28;20227;-80
2022/08/08 05:18:14;;;;;;;22.60;20.43;;;24.80;82.20;;;;;;5080600;28;20217;-80
2022/08/08 05:20:44;;;;;;;23.93;21.00;;;24.80;81.70;;;;;;5101840;28;20240;-80
2022/08/08 05:23:18;;;;;;;22.53;20.33;;;25.00;81.40;;;;;;5093414;28;20210;-80
2022/08/08 05:25:48;;;;;;;21.47;19.37;;;25.10;81.20;;;;;;5079861;28;20254;-81
2022/08/08 05:28:17;;;;;;;22.07;19.90;;;25.40;80.60;;;;;;5076791;28;20221;-80
2022/08/08 05:31:05;;;;;;;18.77;16.90;;;25.60;79.80;;;;;;5077151;28;20211;-81
2022/08/08 05:33:52;;;;;;;19.13;17.23;;;25.80;79.00;;;;;;5089990;28;20190;-81
2022/08/08 05:36:24;;;;;;;19.83;17.83;;;26.10;78.00;;;;;;5093206;28;20197;-81
2022/08/08 05:38:57;;;;;;;18.37;16.47;;;26.20;77.20;;;;;;5090309;28;20296;-81
2022/08/08 05:41:25;;;;;;;19.40;17.20;;;26.30;76.90;;;;;;5093190;28;20220;-81
2022/08/08 05:44:04;;;;;;;18.13;16.43;;;26.30;76.40;;;;;;5083851;28;20206;-81
2022/08/08 05:46:35;;;;;;;17.90;16.20;;;26.30;76.10;;;;;;5098367;28;20659;-81
2022/08/08 05:49:05;;;;;;;18.23;16.53;;;26.30;76.30;;;;;;5084361;28;20315;-81
2022/08/08 05:51:40;;;;;;;17.30;15.50;;;26.20;76.50;;;;;;5089027;28;20209;-81
2022/08/08 05:54:19;;;;;;;16.33;14.63;;;26.20;76.90;;;;;;5086050;28;20220;-80
2022/08/08 05:57:14;;;;;;;15.87;14.37;;;26.30;77.00;;;;;;5096669;28;20194;-81
2022/08/08 05:59:47;;;;;;;17.17;15.47;;;26.40;76.50;;;;;;5093278;28;20208;-81
2022/08/08 06:05:47;;;;;;;16.67;15.23;;;26.60;76.40;;;;;;5094896;28;20216;-81
2022/08/08 06:08:33;;;;;;;16.03;14.53;;;26.60;76.00;;;;;;5091936;28;20222;-81
2022/08/08 06:11:10;;;;;;;15.60;14.13;;;26.70;75.90;;;;;;5083932;28;20230;-80
2022/08/08 06:13:45;;;;;;;15.63;14.23;;;26.70;75.80;;;;;;5082263;28;20207;-81
2022/08/08 06:16:20;;;;;;;15.17;13.87;;;26.60;75.70;;;;;;5079536;28;20657;-80
2022/08/08 06:19:09;;;;;;;14.47;13.00;;;26.60;76.10;;;;;;5082238;28;20220;-80
2022/08/08 06:21:47;;;;;;;14.00;12.83;;;26.60;76.30;;;;;;5072996;28;20949;-81
2022/08/08 06:24:34;;;;;;;13.73;12.53;;;26.50;76.20;;;;;;5074460;28;20299;-81
2022/08/08 06:27:07;;;;;;;13.37;12.20;;;26.50;76.00;;;;;;5088037;28;20213;-81
2022/08/08 06:29:51;;;;;;;13.10;12.00;;;26.50;75.80;;;;;;5073265;28;20221;-81
2022/08/08 06:32:50;;;;;;;13.10;11.73;;;26.40;75.70;;;;;;5078402;28;20208;-80
2022/08/08 06:35:23;;;;;;;13.43;12.23;;;26.40;75.60;;;;;;5075715;28;20202;-81
2022/08/08 06:38:20;;;;;;;12.60;11.40;;;26.40;75.60;;;;;;5079630;28;20642;-80
2022/08/08 06:41:02;;;;;;;13.30;12.17;;;26.30;75.40;;;;;;5077818;28;20212;-81
2022/08/08 06:43:34;;;;;;;13.83;12.43;;;26.30;75.20;;;;;;5077217;28;20203;-81
2022/08/08 06:46:05;;;;;;;13.23;11.93;;;26.20;75.10;;;;;;5091107;28;20600;-80
2022/08/08 06:48:39;;;;;;;12.97;11.77;;;26.20;75.00;;;;;;5092321;28;20226;-80
2022/08/08 06:51:11;;;;;;;16.17;12.77;;;26.10;75.20;;;;;;5086364;28;20217;-81
2022/08/08 06:53:41;;;;;;;13.33;12.03;;;26.10;75.60;;;;;;5066561;28;20197;-81
2022/08/08 06:56:29;;;;;;;13.23;12.07;;;26.00;76.00;;;;;;5089982;28;20269;-81
2022/08/08 06:58:57;;;;;;;13.60;12.20;;;26.00;76.50;;;;;;5091674;28;20228;-81
2022/08/08 07:01:28;;;;;;;12.40;11.30;;;25.90;76.60;;;;;;5076950;28;20205;-81
2022/08/08 07:04:26;;;;;;;12.80;11.60;;;25.90;76.80;;;;;;5085910;28;20244;-82
2022/08/08 07:07:09;;;;;;;11.43;10.47;;;25.90;76.60;;;;;;5089632;28;20217;-81
2022/08/08 07:10:04;;;;;;;12.97;11.67;;;25.80;76.20;;;;;;5088974;28;20736;-82
2022/08/08 07:12:54;;;;;;;13.93;12.63;;;25.80;76.20;;;;;;5084159;28;20205;-80
2022/08/08 07:15:51;;;;;;;13.50;12.13;;;25.70;76.50;;;;;;5080021;28;20226;-80
2022/08/08 07:18:59;;;;;;;13.80;12.40;;;25.70;76.70;;;;;;5077811;28;20233;-81
2022/08/08 07:21:56;;;;;;;13.90;12.60;;;25.60;76.70;;;;;;5077100;28;20206;-81
2022/08/08 07:24:57;;;;;;;13.47;12.27;;;25.60;76.70;;;;;;5080488;28;20702;-83
2022/08/08 07:27:28;;;;;;;13.27;12.07;;;25.50;76.90;;;;;;5085339;28;20221;-81
2022/08/08 07:30:17;;;;;;;12.13;11.03;;;25.40;77.10;;;;;;5091304;28;20217;-81
2022/08/08 07:32:55;;;;;;;12.83;11.53;;;25.40;77.30;;;;;;5077606;28;20210;-82
2022/08/08 07:35:29;;;;;;;13.33;11.63;;;25.40;77.50;;;;;;5075466;28;20240;-80
2022/08/08 07:37:57;;;;;;;12.47;11.27;;;25.30;77.60;;;;;;5090535;28;20550;-82
2022/08/08 07:40:57;;;;;;;13.63;10.90;;;25.30;77.60;;;;;;5079610;28;20585;-82
2022/08/08 07:43:39;;;;;;;12.23;10.93;;;25.30;77.70;;;;;;5080266;28;20538;-80
2022/08/08 07:46:08;;;;;;;12.37;11.17;;;25.30;77.40;;;;;;5089624;28;20234;-81
2022/08/08 07:48:58;;;;;;;11.80;10.67;;;25.30;77.20;;;;;;5080750;28;20225;-81
2022/08/08 07:51:28;;;;;;;12.73;11.43;;;25.30;77.10;;;;;;5081445;28;20304;-82
2022/08/08 07:54:34;;;;;;;12.13;10.87;;;25.30;76.70;;;;;;5083147;28;20247;-82
2022/08/08 07:57:24;;;;;;;12.93;11.60;;;25.30;76.70;;;;;;5082182;28;20212;-82
2022/08/08 08:00:22;;;;;;;13.20;11.90;;;25.30;77.00;;;;;;5089731;28;20228;-81
2022/08/08 08:03:12;;;;;;;13.53;12.10;;;25.40;76.90;;;;;;5093595;28;20225;-82
2022/08/08 08:05:53;;;;;;;14.23;11.77;;;25.40;76.70;;;;;;5076409;28;20259;-82
2022/08/08 08:08:38;;;;;;;13.93;12.43;;;25.40;76.60;;;;;;5097005;28;20204;-82
2022/08/08 08:11:22;;;;;;;13.13;11.70;;;25.50;76.20;;;;;;5081461;28;20201;-81
2022/08/08 08:14:03;;;;;;;13.07;11.23;;;25.60;76.30;;;;;;5090685;28;20206;-83
2022/08/08 08:16:46;;;;;;;12.90;11.40;;;25.60;76.60;;;;;;5094126;28;20210;-81
2022/08/08 08:19:18;;;;;;;12.77;11.53;;;25.70;76.90;;;;;;5096516;28;20204;-80
2022/08/08 08:21:48;;;;;;;12.63;11.10;;;25.90;77.20;;;;;;5092206;28;20708;-81
2022/08/08 08:24:37;;;;;;;13.27;12.00;;;26.00;76.90;;;;;;5076395;28;20298;-80
2022/08/08 08:27:10;;;;;;;12.90;11.43;;;26.20;76.20;;;;;;5090398;28;20209;-81
2022/08/08 08:29:41;;;;;;;12.53;11.40;;;26.30;75.50;;;;;;5093110;28;20565;-80
2022/08/08 08:32:11;;;;;;;11.47;10.47;;;26.40;74.10;;;;;;5088585;28;20228;-81
2022/08/08 08:34:51;;;;;;;10.47;9.47;;;26.50;73.80;;;;;;5092440;28;20224;-80
2022/08/08 08:37:20;;;;;;;12.53;11.23;;;26.60;74.20;;;;;;5090169;28;20231;-81
2022/08/08 08:39:49;;;;;;;12.90;10.80;;;26.70;73.90;;;;;;5069709;28;20203;-81
2022/08/08 08:42:30;;;;;;;13.07;11.27;;;26.80;73.10;;;;;;5072465;28;20202;-82
2022/08/08 08:45:08;;;;;;;12.90;11.60;;;26.90;72.00;;;;;;5091837;28;20247;-83
2022/08/08 08:47:55;;;;;;;14.33;11.20;;;26.90;71.90;;;;;;5079832;28;20234;-82
2022/08/08 08:50:38;;;;;;;11.70;10.60;;;26.90;71.90;;;;;;5079857;28;20587;-81
2022/08/08 08:53:18;;;;;;;11.97;10.77;;;26.90;72.10;;;;;;5068060;28;20212;-81
2022/08/08 08:56:19;;;;;;;13.17;11.97;;;26.90;71.00;;;;;;5090952;28;20206;-83
2022/08/08 08:59:15;;;;;;;12.33;10.90;;;26.90;71.10;;;;;;5079803;28;20203;-83
2022/08/08 09:02:23;;;;;;;15.33;10.53;;;26.90;70.80;;;;;;5095891;28;20219;-82
2022/08/08 09:05:03;;;;;;;13.07;11.87;;;26.90;71.20;;;;;;5088441;28;20432;-83
2022/08/08 09:07:44;;;;;;;13.47;12.13;;;26.90;71.10;;;;;;5092260;28;20205;-82
2022/08/08 09:10:29;;;;;;;12.27;11.17;;;26.90;70.60;;;;;;5079570;28;20339;-82
2022/08/08 09:13:15;;;;;;;12.07;10.87;;;26.90;71.30;;;;;;5086844;28;20653;-82
2022/08/08 09:16:00;;;;;;;12.03;10.93;;;27.00;71.90;;;;;;5084477;28;20237;-83
2022/08/08 09:18:34;;;;;;;11.53;10.33;;;27.20;70.30;;;;;;5079721;28;20202;-80
2022/08/08 09:21:12;;;;;;;11.37;9.97;;;27.30;70.60;;;;;;5090349;28;20681;-81
2022/08/08 09:24:01;;;;;;;10.93;9.93;;;27.50;70.20;;;;;;5075051;28;20205;-81
2022/08/08 09:26:43;;;;;;;12.97;11.77;;;27.80;69.30;;;;;;5069984;28;20225;-83
2022/08/08 09:29:26;;;;;;;11.90;10.30;;;28.10;68.00;;;;;;5089645;28;20690;-83
2022/08/08 09:32:20;;;;;;;6.83;6.27;;;28.50;64.60;;;;;;5079844;28;20211;-82
2022/08/08 09:35:03;;;;;;;10.33;8.30;;;28.70;62.90;;;;;;5083538;28;20728;-83
2022/08/08 09:37:59;;;;;;;9.37;8.43;;;28.90;64.00;;;;;;5084308;28;20208;-83
2022/08/08 09:40:41;;;;;;;7.73;7.03;;;29.10;63.30;;;;;;5097110;28;20292;-84
2022/08/08 09:43:33;;;;;;;8.63;7.73;;;29.30;61.00;;;;;;5070146;28;20303;-83
2022/08/08 09:46:40;;;;;;;10.93;9.00;;;29.40;60.90;;;;;;5086631;28;20214;-83
2022/08/08 09:49:46;;;;;;;8.57;7.67;;;29.40;60.90;;;;;;5074859;28;20227;-83
2022/08/08 09:52:23;;;;;;;8.23;7.43;;;29.50;61.60;;;;;;5072789;28;20544;-84
2022/08/08 09:55:15;;;;;;;7.33;5.93;;;29.50;60.80;;;;;;5081255;28;20205;-83
2022/08/08 09:58:17;;;;;;;6.30;5.80;;;29.40;59.30;;;;;;5076203;28;20201;-83
2022/08/08 10:01:28;;;;;;;5.77;5.37;;;29.40;58.10;;;;;;5079386;28;20517;-83
2022/08/08 10:04:33;;;;;;;7.27;6.67;;;29.20;57.80;;;;;;5077631;28;20197;-83
2022/08/08 10:07:17;;;;;;;11.90;6.97;;;29.10;58.70;;;;;;5087159;28;20202;-84
2022/08/08 10:09:50;;;;;;;8.23;5.97;;;29.10;58.90;;;;;;5088085;28;20240;-83
2022/08/08 10:13:04;;;;;;;7.00;6.50;;;29.20;59.00;;;;;;5086948;28;20262;-83
2022/08/08 10:15:56;;;;;;;6.87;6.27;;;29.20;58.50;;;;;;5083289;28;20198;-83
2022/08/08 10:18:43;;;;;;;6.10;5.57;;;29.10;59.10;;;;;;5095392;28;20184;-84
2022/08/08 10:21:23;;;;;;;8.43;6.40;;;29.10;58.90;;;;;;5083610;28;20297;-83
2022/08/08 10:24:10;;;;;;;7.60;5.80;;;29.10;58.60;;;;;;5097511;28;20216;-82
2022/08/08 10:27:30;;;;;;;7.33;6.60;;;29.10;59.10;;;;;;5077962;28;20201;-82
2022/08/08 10:30:13;;;;;;;8.23;7.50;;;29.10;59.30;;;;;;5084618;28;20228;-83
2022/08/08 10:33:08;;;;;;;7.00;6.40;;;29.10;59.10;;;;;;5077014;28;20197;-83
2022/08/08 10:35:41;;;;;;;8.97;7.27;;;29.00;59.80;;;;;;5077489;28;20202;-83
2022/08/08 10:38:36;;;;;;;9.53;6.47;;;29.00;59.30;;;;;;5083567;28;20221;-83
2022/08/08 10:41:17;;;;;;;7.30;6.43;;;29.00;59.80;;;;;;5088299;28;20218;-82
2022/08/08 10:44:23;;;;;;;6.90;6.13;;;28.90;60.00;;;;;;5077440;28;20237;-83
2022/08/08 10:47:14;;;;;;;9.70;6.60;;;28.90;59.80;;;;;;5084707;28;20205;-82
2022/08/08 10:49:57;;;;;;;7.70;6.60;;;28.90;60.00;;;;;;5089037;28;20247;-83
2022/08/08 10:52:40;;;;;;;7.67;6.23;;;28.90;59.00;;;;;;5086851;28;20216;-82
2022/08/08 10:55:19;;;;;;;5.77;5.33;;;28.90;59.30;;;;;;5094198;28;20615;-83
2022/08/08 10:58:10;;;;;;;5.63;5.13;;;28.90;59.20;;;;;;5083090;28;20280;-82
2022/08/08 11:00:46;;;;;;;5.90;5.40;;;28.90;59.40;;;;;;5085899;28;20205;-82
2022/08/08 11:03:44;;;;;;;7.17;5.47;;;28.90;58.70;;;;;;5083468;28;20198;-82
2022/08/08 11:06:35;;;;;;;6.03;5.33;;;29.00;58.30;;;;;;5090544;28;20283;-82
2022/08/08 11:09:16;;;;;;;6.93;6.23;;;29.00;58.20;;;;;;5088760;28;20213;-83
2022/08/08 11:11:51;;;;;;;7.50;6.90;;;29.00;57.40;;;;;;5086170;28;20242;-82
2022/08/08 11:14:50;;;;;;;6.83;6.17;;;29.00;57.60;;;;;;5090197;28;20294;-83
2022/08/08 11:17:25;;;;;;;6.57;6.07;;;29.10;58.00;;;;;;5076537;28;20223;-83
2022/08/08 11:20:39;;;;;;;6.07;5.57;;;29.10;57.70;;;;;;5088359;28;20221;-82
2022/08/08 11:23:20;;;;;;;6.70;6.10;;;29.20;57.50;;;;;;5095245;28;20726;-81
2022/08/08 11:25:50;;;;;;;7.10;6.40;;;29.30;56.90;;;;;;5086785;28;20212;-82
2022/08/08 11:28:25;;;;;;;5.70;5.20;;;29.40;56.20;;;;;;5088369;28;20277;-81
2022/08/08 11:30:59;;;;;;;6.17;5.30;;;29.40;56.40;;;;;;5085011;28;20686;-80
2022/08/08 11:33:27;;;;;;;7.73;5.60;;;29.50;56.30;;;;;;5089356;28;20196;-83
2022/08/08 11:36:15;;;;;;;6.93;5.57;;;29.60;55.40;;;;;;5099118;28;20216;-81
2022/08/08 11:38:45;;;;;;;5.20;4.80;;;29.60;55.20;;;;;;5065790;28;20540;-83
2022/08/08 11:41:43;;;;;;;5.20;4.70;;;29.70;54.90;;;;;;5086718;28;20196;-81
2022/08/08 11:44:13;;;;;;;5.00;4.40;;;29.80;54.80;;;;;;5091539;28;20657;-82
2022/08/08 11:46:42;;;;;;;4.73;4.33;;;29.90;54.80;;;;;;5096316;28;20201;-82
2022/08/08 11:49:10;;;;;;;5.73;4.43;;;29.90;54.50;;;;;;5081769;28;20201;-81
2022/08/08 11:51:41;;;;;;;4.37;3.97;;;30.00;54.50;;;;;;5080847;28;20224;-82
2022/08/08 11:54:30;;;;;;;5.10;4.60;;;30.10;53.50;;;;;;5087789;28;20551;-81
2022/08/08 11:57:18;;;;;;;6.60;4.70;;;30.20;53.90;;;;;;5083301;28;20259;-81
2022/08/08 12:00:00;;;;;;;5.00;4.50;;;30.30;53.70;;;;;;5075387;28;20257;-82
2022/08/08 12:02:53;;;;;;;4.80;4.40;;;30.40;53.60;;;;;;5093179;28;20206;-80
2022/08/08 12:05:35;;;;;;;5.03;4.53;;;30.60;53.80;;;;;;5091748;28;20304;-81
2022/08/08 12:08:03;;;;;;;6.47;5.20;;;30.80;53.60;;;;;;5085996;28;20201;-81
2022/08/08 12:10:31;;;;;;;4.93;4.53;;;31.10;52.70;;;;;;5085767;28;20245;-81
2022/08/08 12:13:06;;;;;;;5.43;4.93;;;31.40;52.40;;;;;;5082693;28;20201;-80
2022/08/08 12:15:38;;;;;;;5.10;4.40;;;31.70;51.70;;;;;;5094646;28;20192;-82
2022/08/08 12:18:26;;;;;;;5.83;4.87;;;32.10;50.70;;;;;;5102687;28;20197;-82
2022/08/08 12:20:56;;;;;;;5.30;4.80;;;32.30;49.50;;;;;;5095939;28;20198;-82
2022/08/08 12:23:28;;;;;;;6.10;5.13;;;32.20;49.50;;;;;;5074411;28;20225;-83
2022/08/08 12:26:20;;;;;;;4.97;4.57;;;32.20;49.90;;;;;;5080265;28;20292;-81
2022/08/08 12:29:19;;;;;;;6.70;6.13;;;32.30;50.20;;;;;;5086483;28;20198;-81
2022/08/08 12:32:03;;;;;;;8.27;6.00;;;32.50;49.40;;;;;;5081388;28;20220;-82
2022/08/08 12:35:02;;;;;;;5.07;4.67;;;32.50;49.00;;;;;;5102028;28;20208;-81
2022/08/08 12:37:46;;;;;;;7.67;5.90;;;32.50;49.40;;;;;;5098680;28;20205;-82
2022/08/08 12:40:40;;;;;;;5.90;5.40;;;32.60;48.40;;;;;;5097343;28;20208;-82
2022/08/08 12:43:31;;;;;;;5.87;5.37;;;32.70;49.10;;;;;;5092116;28;20218;-83
2022/08/08 12:46:21;;;;;;;6.00;5.50;;;32.70;49.10;;;;;;5093462;28;20205;-81
2022/08/08 12:49:01;;;;;;;5.30;4.80;;;32.70;49.20;;;;;;5089289;28;20209;-83
2022/08/08 12:51:50;;;;;;;5.37;4.83;;;32.80;48.70;;;;;;5090926;28;20272;-81
2022/08/08 12:54:32;;;;;;;4.60;4.30;;;32.90;47.80;;;;;;5075839;28;20208;-82
2022/08/08 12:57:22;;;;;;;6.20;5.60;;;32.80;48.70;;;;;;5097675;28;20193;-83
2022/08/08 12:59:52;;;;;;;5.10;4.53;;;32.80;48.70;;;;;;5085488;28;20329;-81
2022/08/08 13:02:35;;;;;;;7.53;5.20;;;32.80;48.90;;;;;;5082668;28;20293;-82
2022/08/08 13:05:19;;;;;;;4.67;4.37;;;32.80;49.20;;;;;;5077442;28;20208;-81
2022/08/08 13:08:17;;;;;;;4.40;4.10;;;33.00;48.20;;;;;;5088723;28;20573;-81
2022/08/08 13:10:54;;;;;;;4.90;4.43;;;33.10;48.20;;;;;;5083481;28;20260;-80
2022/08/08 13:13:29;;;;;;;4.57;4.20;;;33.10;48.80;;;;;;5094455;28;20212;-83
2022/08/08 13:16:18;;;;;;;5.20;4.80;;;33.20;47.90;;;;;;5083042;28;20194;-81
2022/08/08 13:18:46;;;;;;;4.73;4.33;;;33.20;47.10;;;;;;5075804;28;20193;-82
2022/08/08 13:21:27;;;;;;;4.83;4.43;;;33.30;47.30;;;;;;5083094;28;20276;-81
2022/08/08 13:24:15;;;;;;;4.67;4.27;;;33.40;47.00;;;;;;5088679;28;20225;-81
2022/08/08 13:27:13;;;;;;;4.43;4.10;;;33.30;46.10;;;;;;5074069;28;20491;-80
2022/08/08 13:29:52;;;;;;;4.30;4.00;;;33.30;46.30;;;;;;5086624;28;20209;-80
2022/08/08 13:32:21;;;;;;;4.17;3.87;;;33.20;46.00;;;;;;5090399;28;20224;-80
2022/08/08 13:34:55;;;;;;;5.20;4.20;;;33.20;45.40;;;;;;5083960;28;20213;-81
2022/08/08 13:37:24;;;;;;;6.53;4.63;;;33.20;45.10;;;;;;5081017;28;20228;-80
2022/08/08 13:40:12;;;;;;;4.57;4.17;;;33.10;44.70;;;;;;5088107;28;20202;-81
2022/08/08 13:42:53;;;;;;;6.07;4.43;;;33.00;45.20;;;;;;5107566;28;20202;-81
2022/08/08 13:45:20;;;;;;;4.50;4.07;;;32.90;45.40;;;;;;5078207;28;20262;-81
2022/08/08 13:48:01;;;;;;;4.10;3.73;;;32.90;45.90;;;;;;5087879;28;20209;-82
2022/08/08 13:50:34;;;;;;;4.40;4.10;;;33.00;46.20;;;;;;5088885;28;20557;-82
2022/08/08 13:53:29;;;;;;;4.70;4.40;;;33.00;45.40;;;;;;5076899;28;20211;-81
2022/08/08 13:56:06;;;;;;;4.40;4.00;;;33.00;45.00;;;;;;5093073;28;20201;-81
2022/08/08 13:58:48;;;;;;;6.87;4.70;;;33.00;45.80;;;;;;5085263;28;20209;-81
2022/08/08 14:01:28;;;;;;;5.10;4.50;;;33.00;45.70;;;;;;5091080;28;20216;-80
2022/08/08 14:04:20;;;;;;;4.70;4.30;;;33.00;45.60;;;;;;5093419;28;20194;-80
2022/08/08 14:06:57;;;;;;;4.03;3.73;;;32.90;46.30;;;;;;5078454;28;20220;-81
2022/08/08 14:09:32;;;;;;;6.07;3.77;;;32.90;45.70;;;;;;5101779;28;20205;-80